Locharron, United Kingdom
Current Conditions -  °F | °C
As of 11:50 PM on Saturday 20 Dec 2014 (Local Time) from EGPE Reporting Station
Few Clouds Few Clouds  
Wind Chill: 35°   Ceiling: Unl
Heat Index: 43°   Visibility: 6mi
Dew Point: 39°   Wind: 15mph
Humidity: 87%   Direction: 250°WSW
Pressure: 29.97"   Gusts: NA
Location:  57.4°N, 5.48°W
Report Text: EGPE 202350Z AUTO 25013KT 9999 FEW040/// 06/04 Q1015
Loading
Personal Weather Stations






























Interactive Weather Map New forecast layout! Learn more

10-Day Weather Forecast

Advertisements
Track Severe Weather on mobile